Kenyon, Minnesota
Current Conditions -  °F | °C
As of 2:34 PM on Wednesday 26 Nov 2014 (Local Time) from KSYN Reporting Station
Light Snow Light Snow  
Wind Chill: 19°   Ceiling: 900
Heat Index: 26°   Visibility: 1.7mi
Dew Point: 23°   Wind: 7mph
Humidity: 86%   Direction: 10°N
Pressure: 30.18"   Gusts: NA
Location:  44.27°N, 92.99°W
Report Text: KSYN 262034Z AUTO 01006KT 1 3/4SM -SN OVC009 M03/M05 A3018 RMK AO2 T10321052
Loading
Personal Weather Stations






























Interactive Weather Map New forecast layout! Learn more

10-Day Weather Forecast

Advertisements
Track Severe Weather on mobile